Latest Coastal Weather Observations for Sydney Airport

IDN60701

Issued at 7:02 am EST Monday 22 April 2024 (issued every 10 minutes, with the page automatically refreshed every 10 minutes)

About coastal observations | Map of coastal stations | Coastal observations for NSW | Marine services | Other Formats
Station Details ID: 066037 Name: SYDNEY AIRPORT AMO Lat: -33.95 Lon: 151.17 Height: 6.0 m
Data from the previous 72 hours. | See also: Recent months at Sydney Airport
Date/Time
EST
Wind Sea
Height
m
Swell Vis
km
Cloud Weather Temp
°C
Press
MSL
hPa
Rain since
9am
mm
Dir  Spd
kts
Gust
kts
Height
m
Period
s
Dir
22/06:30am SSW 9 11 - - - - 10 Mostly clear - 16.2 1028.7 0.0
22/06:00am SSW 11 16 - - - - 25 Mostly clear Fine 16.7 1028.4 0.0
22/05:30am SSW 10 13 - - - - 10 Partly cloudy - 16.6 1028.4 0.0
22/05:00am SSW 9 10 - - - - 10 Partly cloudy - 14.6 1028.4 0.0
22/04:30am S 11 15 - - - - 10 - - 16.2 1028.1 0.0
22/04:00am SSW 12 15 - - - - 10 - - 16.4 1027.8 0.0
22/03:30am SW 8 10 - - - - 10 - - 15.6 1027.6 0.0
22/03:00am SW 8 9 - - - - 10 - - 15.0 1027.5 0.0
22/02:30am WSW 7 8 - - - - 10 - - 14.4 1027.7 0.0
22/02:00am WSW 5 6 - - - - 10 Partly cloudy - 14.3 1028.1 0.0
22/01:30am WSW 5 6 - - - - 10 Partly cloudy - 14.4 1028.5 0.0
22/01:00am WSW 5 6 - - - - 10 Partly cloudy - 14.4 1028.8 0.0
22/12:30am WSW 5 6 - - - - 10 Partly cloudy - 15.1 1028.9 0.0
22/12:00am W 4 5 - - - - 10 - - 15.4 1028.8 0.0
 
Date/Time
EST
Wind Sea
Height
m
Swell Vis
km
Cloud Weather Temp
°C
Press
MSL
hPa
Rain since
9am
mm
Dir  Spd
kts
Gust
kts
Height
m
Period
s
Dir
21/11:30pm WSW 5 6 - - - - 10 - - 15.7 1028.8 0.0
21/11:00pm WSW 6 6 - - - - 10 - - 16.1 1028.9 0.0
21/10:30pm SW 6 8 - - - - 10 - - 16.2 1029.0 0.0
21/10:00pm S 6 8 - - - - 10 - - 16.7 1029.0 0.0
21/09:30pm SSE 7 7 - - - - 10 - - 17.9 1028.8 0.0
21/09:00pm SSE 7 7 - - - - 25 Clear Fine 18.2 1028.7 0.0
21/08:30pm SSE 6 7 - - - - 10 - - 18.2 1028.5 0.0
21/08:00pm SSE 7 8 - - - - 10 - - 18.0 1028.5 0.0
21/07:30pm SE 8 10 - - - - 10 - - 18.3 1028.3 0.0
21/07:00pm SE 9 10 - - - - 10 - - 18.1 1028.1 0.0
21/06:30pm SE 8 10 - - - - 10 - - 18.4 1027.9 0.0
21/06:00pm SE 9 10 - - - - 25 Mostly clear Fine 18.7 1027.7 0.0
21/05:30pm SSE 8 10 - - - - 10 Mostly clear - 18.9 1027.5 0.0
21/05:00pm SSE 8 11 - - - - 10 Mostly clear - 18.9 1027.2 0.0
21/04:30pm SSE 8 12 - - - - 10 Mostly clear - 19.1 1027.0 0.0
21/04:00pm S 9 12 - - - - 10 Mostly clear - 19.1 1026.9 0.0
21/03:30pm S 10 13 - - - - 10 Partly cloudy - 19.4 1026.9 0.0
21/03:00pm S 11 16 - - - - 25 Mostly cloudy Fine 19.7 1027.0 0.0
21/02:30pm S 11 15 - - - - 10 Mostly clear - 19.6 1027.1 0.0
21/02:00pm S 12 16 - - - - 10 Mostly clear - 19.4 1027.0 0.0
21/01:30pm S 14 17 - - - - 10 Mostly clear - 19.8 1027.2 0.0
21/01:00pm S 14 18 - - - - 10 Mostly clear - 20.1 1027.3 0.0
21/12:30pm S 13 20 - - - - 10 Mostly clear - 19.8 1027.6 0.0
21/12:00pm S 15 18 - - - - 25 Mostly cloudy Fine 19.7 1028.0 0.0
21/11:30am S 15 22 - - - - 10 Mostly clear - 19.6 1028.5 0.0
21/11:00am S 16 20 - - - - 10 Mostly clear - 19.3 1028.9 0.0
21/10:30am S 17 20 - - - - 10 Mostly clear - 19.1 1029.0 0.0
21/10:00am S 17 22 - - - - 10 Mostly clear - 18.9 1029.0 0.0
21/09:30am S 16 20 - - - - 10 Mostly clear - 19.0 1028.9 0.0
21/09:00am S 16 20 - - - - 30 Partly cloudy Fine 18.8 1028.8 6.8
21/08:30am S 18 23 - - - - 10 Mostly clear - 18.6 1028.9 6.8
21/08:00am S 16 20 - - - - 10 Mostly clear - 18.4 1028.9 6.8
21/07:30am S 14 19 - - - - 10 Mostly clear - 17.9 1028.7 6.8
21/07:00am SSW 13 16 - - - - 10 Mostly clear - 17.9 1028.4 6.8
21/06:30am S 16 24 - - - - 10 Mostly clear - 18.0 1028.1 6.8
21/06:00am SSE 16 20 - - - - 25 Mostly clear Fine 18.2 1027.7 6.8
21/05:30am SSE 16 20 - - - - 10 Mostly clear - 17.6 1027.7 6.8
21/05:00am S 17 22 - - - - 10 Partly cloudy - 17.4 1027.5 6.8
21/04:30am S 18 23 - - - - 10 Partly cloudy - 18.5 1027.0 6.8
21/04:00am S 19 26 - - - - 10 Partly cloudy - 18.2 1026.8 6.8
21/03:30am SSE 18 22 - - - - 10 Partly cloudy - 18.7 1026.5 6.8
21/03:00am SSE 18 24 - - - - 10 Mostly clear - 18.6 1026.6 6.8
21/02:30am S 19 25 - - - - 10 Partly cloudy - 18.6 1026.7 6.8
21/02:00am SSE 19 25 - - - - 10 Partly cloudy - 18.7 1026.8 6.8
21/01:30am SSE 19 26 - - - - 10 Partly cloudy - 18.5 1026.8 6.8
21/01:00am SSE 19 25 - - - - 10 Partly cloudy - 18.4 1027.0 6.8
21/12:30am SSE 18 22 - - - - 10 Partly cloudy - 19.0 1027.1 6.8
21/12:00am SSE 17 22 - - - - 10 Mostly clear - 18.7 1026.9 6.8
 
Date/Time
EST
Wind Sea
Height
m
Swell Vis
km
Cloud Weather Temp
°C
Press
MSL
hPa
Rain since
9am
mm
Dir  Spd
kts
Gust
kts
Height
m
Period
s
Dir
20/11:30pm S 17 22 - - - - 10 Partly cloudy - 18.7 1027.0 6.8
20/11:00pm SSE 19 25 - - - - 10 Partly cloudy - 18.6 1027.1 6.8
20/10:31pm SSE 18 25 - - - - 10 Partly cloudy - 18.9 1027.0 6.8
20/10:30pm SSE 18 25 - - - - 10 Partly cloudy - 18.9 1027.1 6.8
20/10:00pm SSE 18 22 - - - - 10 Partly cloudy - 18.6 1027.3 6.8
20/09:30pm SSE 21 26 - - - - 10 Mostly clear - 19.1 1027.1 6.8
20/09:00pm S 22 29 - - - - 20 Mostly cloudy Distant precip. 19.0 1027.0 6.8
20/08:30pm SSE 22 30 - - - - 10 Mostly clear - 18.7 1026.8 6.8
20/08:00pm SSE 21 29 - - - - 10 Partly cloudy - 19.1 1026.5 6.8
20/07:30pm SSE 26 31 - - - - 10 Partly cloudy - 19.2 1026.4 6.8
20/07:00pm SSE 25 32 - - - - 10 Partly cloudy - 19.2 1026.1 6.8
20/06:30pm SSE 22 29 - - - - 10 Partly cloudy - 18.9 1025.8 6.8
20/06:00pm S 19 27 - - - - 15 Mostly cloudy Distant precip. 17.0 1025.7 6.8
20/05:30pm S 22 27 - - - - 8 Mostly clear Showers 16.7 1025.6 6.6
20/05:13pm S 23 32 - - - - 10 Mostly clear Showers 16.8 1025.4 6.4
20/05:03pm SSW 17 29 - - - - 6 Partly cloudy Showers 16.8 1025.3 6.4
20/05:00pm S 16 23 - - - - 6 Partly cloudy - 16.6 1025.3 6.0
20/04:53pm S 18 26 - - - - 6 Partly cloudy Showers 16.4 1025.6 5.8
20/04:39pm S 23 30 - - - - 8 Partly cloudy Showers 16.8 1025.5 5.4
20/04:30pm S 21 28 - - - - 4 Partly cloudy Showers 16.6 1025.5 5.4
20/04:09pm S 21 30 - - - - 4 Mostly clear Showers 16.6 1025.3 3.2
20/04:00pm S 24 30 - - - - 5 Partly cloudy - 16.8 1025.0 2.6
20/03:30pm SSW 22 31 - - - - 6 Mostly clear Showers 17.7 1024.7 2.4
20/03:00pm SSW 23 31 - - - - 8 Mostly cloudy Showers 18.0 1024.6 2.4
20/02:30pm S 25 32 - - - - 10 Mostly clear Showers 18.6 1024.4 2.2
20/02:00pm SSW 19 26 - - - - 10 Mostly clear - 18.5 1024.3 2.2
20/01:42pm SSW 23 29 - - - - 10 Partly cloudy - 17.6 1024.3 2.2
20/01:30pm SSW 24 31 - - - - 6 Mostly clear Showers 17.5 1024.2 2.2
20/01:15pm SSW 23 33 - - - - 10 Partly cloudy - 17.9 1024.1 2.2
20/01:00pm SSW 26 34 - - - - 10 Partly cloudy - 17.7 1024.1 2.2
20/12:30pm S 27 33 - - - - 10 Mostly clear Drizzle 17.4 1024.2 2.2
20/12:21pm SSW 27 35 - - - - 10 Partly cloudy Showers 17.4 1024.1 2.2
20/12:00pm SSW 23 30 - - - - 7 Mostly cloudy Showers 16.3 1024.5 2.0
20/11:50am SSW 24 34 - - - - 3 Partly cloudy Showers 16.6 1024.5 1.2
20/11:46am SSW 22 34 - - - - 10 Partly cloudy Showers 17.4 1024.4 1.0
20/11:30am SSW 22 28 - - - - 10 Partly cloudy Showers 17.2 1024.5 0.6
20/11:18am SSW 23 28 - - - - 8 Partly cloudy Showers 16.5 1024.5 0.6
20/11:00am SSW 23 30 - - - - 9 Partly cloudy - 16.9 1024.6 0.6
20/10:55am SSW 24 30 - - - - 8 Partly cloudy Showers 16.7 1024.6 0.6
20/10:30am SSW 22 29 - - - - 6 Partly cloudy Drizzle 16.2 1024.6 0.4
20/10:22am SSW 24 30 - - - - 6 Partly cloudy Showers 16.6 1024.7 0.0
20/10:16am SSW 25 30 - - - - 8 Mostly clear Drizzle 16.8 1024.6 0.0
20/10:00am SSW 23 29 - - - - 10 Mostly clear - 17.5 1024.4 0.0
20/09:30am SSW 22 27 - - - - 10 Partly cloudy Drizzle 17.8 1024.1 0.0
20/09:00am SSW 22 29 - - - - 18 Mostly cloudy Showers 17.3 1024.1 2.2
20/08:30am SSW 21 28 - - - - 10 Mostly clear - 17.2 1024.0 2.2
20/08:00am SSW 20 27 - - - - 10 Partly cloudy - 16.6 1023.7 2.2
20/07:30am SSW 18 22 - - - - 10 Mostly clear - 16.9 1023.1 2.2
20/07:00am S 22 29 - - - - 10 Mostly clear - 17.1 1022.8 2.2
20/06:30am SSW 22 34 - - - - 10 Partly cloudy Showers 17.1 1022.5 2.2
20/06:22am SSW 21 28 - - - - 10 Partly cloudy - 17.1 1022.4 2.2
20/06:00am SSW 22 31 - - - - 20 Mostly cloudy Distant precip. 16.8 1022.1 2.2
20/05:52am SSW 20 30 - - - - 10 Mostly clear Showers 16.6 1022.1 2.2
20/05:30am SW 15 23 - - - - 10 Partly cloudy Showers 15.4 1022.0 2.0
20/05:17am SW 17 27 - - - - 5 Partly cloudy - 16.0 1022.1 1.2
20/05:09am SSW 19 23 - - - - 10 Partly cloudy - 16.2 1021.9 0.0
20/05:00am SSW 19 23 - - - - 10 Partly cloudy - 16.6 1022.0 0.0
20/04:49am SSW 18 22 - - - - 10 Partly cloudy - 16.5 1021.9 0.0
20/04:30am SSW 19 23 - - - - 10 Partly cloudy - 16.5 1021.8 0.0
20/04:00am SSW 18 24 - - - - 10 - - 16.7 1021.6 0.0
20/03:30am SSW 18 21 - - - - 10 Partly cloudy - 16.7 1021.4 0.0
20/03:00am SSW 19 24 - - - - 10 Cloudy - 16.9 1021.4 0.0
20/02:30am SSW 19 23 - - - - 10 Partly cloudy - 17.2 1021.6 0.0
20/02:00am SSW 19 25 - - - - 10 Partly cloudy - 17.4 1021.6 0.0
20/01:30am SSW 17 21 - - - - 10 Partly cloudy - 17.7 1021.6 0.0
20/01:00am SSW 19 25 - - - - 10 Partly cloudy - 17.9 1021.4 0.0
20/12:30am SSW 21 29 - - - - 10 Partly cloudy - 18.2 1021.1 0.0
20/12:00am S 22 29 - - - - 10 Cloudy - 18.4 1021.1 0.0
 
Date/Time
EST
Wind Sea
Height
m
Swell Vis
km
Cloud Weather Temp
°C
Press
MSL
hPa
Rain since
9am
mm
Dir  Spd
kts
Gust
kts
Height
m
Period
s
Dir
19/11:46pm S 20 26 - - - - 10 Partly cloudy - 18.8 1021.1 0.0
19/11:33pm S 21 30 - - - - 10 Partly cloudy - 19.0 1021.0 0.0
19/11:30pm S 21 27 - - - - 10 Partly cloudy - 19.1 1021.0 0.0
19/11:00pm S 20 26 - - - - 10 Partly cloudy - 19.2 1021.1 0.0
19/10:30pm S 20 27 - - - - 10 Partly cloudy - 19.2 1021.1 0.0
19/10:00pm S 18 24 - - - - 10 Partly cloudy - 19.2 1021.3 0.0
19/09:30pm SSW 14 19 - - - - 10 Partly cloudy - 18.1 1021.4 0.0
19/09:00pm SSW 14 23 - - - - 25 Mostly cloudy Fine 18.1 1021.4 0.0
19/08:30pm SSW 15 17 - - - - 10 Partly cloudy - 18.1 1021.1 0.0
19/08:00pm SSW 14 18 - - - - 10 Mostly clear - 18.3 1020.9 0.0
19/07:30pm S 20 24 - - - - 10 Mostly clear - 19.0 1020.5 0.0
19/07:00pm S 19 23 - - - - 10 Mostly clear - 19.0 1020.3 0.0
19/06:30pm S 18 24 - - - - 10 Mostly clear - 19.0 1019.9 0.0
19/06:00pm S 19 23 - - - - 25 Mostly cloudy Distant precip. 19.0 1019.4 0.0
19/05:30pm S 19 26 - - - - 10 Mostly clear - 18.9 1019.1 0.0
19/05:00pm S 19 23 - - - - 10 Partly cloudy - 19.0 1018.7 0.0
19/04:30pm S 18 23 - - - - 10 Partly cloudy - 19.0 1018.5 0.0
19/04:00pm S 18 24 - - - - 10 Partly cloudy - 19.1 1018.2 0.0
19/03:30pm S 17 27 - - - - 10 Partly cloudy - 19.3 1017.9 0.0
19/03:29pm S 17 27 - - - - 10 Partly cloudy - 19.3 1017.9 0.0
19/03:00pm S 16 20 - - - - 25 Mostly cloudy Fine 19.4 1017.7 0.0
19/02:30pm S 16 19 - - - - 10 Partly cloudy - 19.1 1017.3 0.0
19/02:12pm S 16 28 - - - - 10 Partly cloudy - 19.6 1017.1 0.0
19/02:00pm S 15 19 - - - - 10 Partly cloudy - 19.3 1017.0 0.0
19/01:30pm S 14 19 - - - - 10 Partly cloudy - 19.5 1016.7 0.0
19/01:00pm S 12 15 - - - - 10 Partly cloudy - 19.1 1016.9 0.0
19/12:30pm SSE 11 14 - - - - 10 Mostly clear - 19.5 1017.0 0.0
19/12:00pm SSE 9 12 - - - - 30 Mostly cloudy Distant precip. 20.0 1017.1 0.0
19/11:30am S 6 9 - - - - 10 Mostly clear - 19.7 1017.2 0.0
19/11:00am SW 4 10 - - - - 10 Mostly clear - 19.4 1017.3 0.0
19/10:30am W 5 7 - - - - 10 Mostly clear - 19.2 1017.6 0.0
19/10:00am W 7 10 - - - - 10 Mostly clear - 19.1 1017.4 0.0
19/09:30am W 8 10 - - - - 10 Mostly clear - 18.7 1017.2 0.0
19/09:00am WSW 8 11 - - - - 30 Mostly clear Fine 17.4 1016.9 2.4
19/08:30am WSW 11 14 - - - - 10 Mostly clear - 16.6 1016.6 2.4
19/08:00am W 9 11 - - - - 10 Mostly clear - 15.5 1016.5 2.4
19/07:30am W 7 10 - - - - 10 Mostly clear - 14.0 1016.3 2.4

Other formats

Comma delimited format used in spreadsheet applications
http://www.bom.gov.au/fwo/IDN60701/IDN60701.94767.axf

JavaScript Object Notation format (JSON) in row-major order
http://www.bom.gov.au/fwo/IDN60701/IDN60701.94767.json

Data quality

Most of these data are generated automatically and are frequently updated. Quality checks on data are not normally performed. It is possible for incorrect values to appear. Refer to information at About Latest Weather Observations and please check the disclaimer before using these data.